createdAt,value
2024-01-11T00:00:37.445Z,98513.60
2024-01-11T00:03:04.916Z,98510.60
2024-01-11T00:05:31.602Z,98505.00
2024-01-11T00:07:58.574Z,98503.00
2024-01-11T00:10:25.313Z,98488.80
2024-01-11T00:12:53.110Z,98497.40
2024-01-11T00:15:19.995Z,98504.40
2024-01-11T00:17:46.767Z,98508.00
2024-01-11T00:20:13.581Z,98503.00
2024-01-11T00:22:40.258Z,98506.00
2024-01-11T00:25:07.819Z,98502.80
2024-01-11T00:27:34.714Z,98504.80
2024-01-11T00:30:01.340Z,98503.80
2024-01-11T00:32:28.045Z,98505.20
2024-01-11T00:34:54.855Z,98496.00
2024-01-11T00:37:21.726Z,98501.80
2024-01-11T00:39:48.772Z,98516.00
2024-01-11T00:42:15.367Z,98522.40
2024-01-11T00:44:42.163Z,98521.80
2024-01-11T00:47:08.998Z,98519.20
2024-01-11T00:49:35.810Z,98522.60
2024-01-11T00:52:02.603Z,98524.20
2024-01-11T00:54:29.181Z,98522.60
2024-01-11T00:56:55.742Z,98523.40
2024-01-11T00:59:22.362Z,98521.20
2024-01-11T01:01:49.956Z,98522.60
2024-01-11T01:04:17.154Z,98525.20
2024-01-11T01:06:44.450Z,98531.20
2024-01-11T01:09:11.219Z,98524.00
2024-01-11T01:11:37.939Z,98519.20
2024-01-11T01:14:05.954Z,98525.00
2024-01-11T01:16:32.566Z,98522.80
2024-01-11T01:18:59.702Z,98527.80
2024-01-11T01:21:26.519Z,98528.60
2024-01-11T01:23:53.095Z,98526.80
2024-01-11T01:26:19.811Z,98526.00
2024-01-11T01:28:46.568Z,98531.60
2024-01-11T01:31:13.597Z,98541.80
2024-01-11T01:33:41.541Z,98545.20
2024-01-11T01:36:12.046Z,98543.00
2024-01-11T01:38:39.010Z,98540.00
2024-01-11T01:41:06.498Z,98536.00
2024-01-11T01:43:33.445Z,98539.20
2024-01-11T01:46:00.242Z,98544.00
2024-01-11T01:48:28.350Z,98542.80
2024-01-11T01:50:56.399Z,98542.40
2024-01-11T01:53:24.196Z,98545.00
2024-01-11T01:55:52.972Z,98546.00
2024-01-11T01:58:20.903Z,98548.40
2024-01-11T02:00:51.981Z,98542.60
2024-01-11T02:03:19.517Z,98545.00
2024-01-11T02:05:46.409Z,98544.80
2024-01-11T02:08:17.461Z,98543.00
2024-01-11T02:10:44.475Z,98542.40
2024-01-11T02:13:13.046Z,98537.60
2024-01-11T02:15:40.220Z,98535.80
2024-01-11T02:18:07.006Z,98542.20
2024-01-11T02:20:34.016Z,98535.20
2024-01-11T02:23:06.823Z,98546.80
2024-01-11T02:25:33.445Z,98544.40
2024-01-11T02:28:00.056Z,98541.40
2024-01-11T02:30:26.700Z,98537.80
2024-01-11T02:32:55.081Z,98541.00
2024-01-11T02:35:22.627Z,98540.20
2024-01-11T02:37:49.803Z,98544.00
2024-01-11T02:40:16.623Z,98532.40
2024-01-11T02:42:43.553Z,98529.40
2024-01-11T02:45:12.018Z,98530.80
2024-01-11T02:47:38.916Z,98523.40
2024-01-11T02:50:08.562Z,98503.80
2024-01-11T02:52:35.755Z,98523.80
2024-01-11T02:55:02.378Z,98523.20
2024-01-11T02:57:28.986Z,98514.80
2024-01-11T02:59:55.615Z,98519.40
2024-01-11T03:02:22.574Z,98520.60
2024-01-11T03:04:49.348Z,98518.40
2024-01-11T03:07:16.078Z,98510.00
2024-01-11T03:09:42.676Z,98507.20
2024-01-11T03:12:10.391Z,98500.60
2024-01-11T03:14:37.057Z,98493.60
2024-01-11T03:17:03.953Z,98492.00
2024-01-11T03:19:30.692Z,98486.60
2024-01-11T03:21:57.426Z,98478.80
2024-01-11T03:24:24.005Z,98479.20
2024-01-11T03:26:50.654Z,98479.00
2024-01-11T03:29:17.343Z,98478.00
2024-01-11T03:31:46.156Z,98483.00
2024-01-11T03:34:13.168Z,98483.00
2024-01-11T03:36:40.756Z,98480.00
2024-01-11T03:39:07.505Z,98478.00
2024-01-11T03:41:34.259Z,98478.20
2024-01-11T03:44:01.760Z,98479.60
2024-01-11T03:46:28.598Z,98477.80
2024-01-11T03:48:56.916Z,98476.20
2024-01-11T03:51:23.698Z,98473.60
2024-01-11T03:53:50.373Z,98473.80
2024-01-11T03:56:17.312Z,98464.20
2024-01-11T03:58:45.918Z,98460.20
2024-01-11T04:01:12.616Z,98452.80
2024-01-11T04:03:39.700Z,98455.20
2024-01-11T04:06:07.719Z,98461.60
2024-01-11T04:08:34.935Z,98461.60
2024-01-11T04:11:07.843Z,98467.40
2024-01-11T04:13:34.479Z,98474.20
2024-01-11T04:16:06.121Z,98475.20
2024-01-11T04:18:32.828Z,98477.20
2024-01-11T04:21:00.025Z,98479.00
2024-01-11T04:23:26.735Z,98476.80
2024-01-11T04:25:53.460Z,98478.40
2024-01-11T04:28:20.062Z,98477.20
2024-01-11T04:30:46.771Z,98475.40
2024-01-11T04:33:13.540Z,98479.60
2024-01-11T04:35:40.328Z,98476.60
2024-01-11T04:38:07.030Z,98475.00
2024-01-11T04:40:33.674Z,98467.40
2024-01-11T04:43:00.274Z,98468.60
2024-01-11T04:45:26.864Z,98465.20
2024-01-11T04:47:53.727Z,98464.20
2024-01-11T04:50:22.635Z,98467.80
2024-01-11T04:52:49.732Z,98471.60
2024-01-11T04:55:16.376Z,98473.20
2024-01-11T04:57:42.972Z,98474.60
2024-01-11T05:00:09.977Z,98472.60
2024-01-11T05:02:36.736Z,98473.00
2024-01-11T05:05:03.734Z,98467.80
2024-01-11T05:07:30.609Z,98472.80
2024-01-11T05:09:57.210Z,98473.60
2024-01-11T05:12:23.880Z,98475.20
2024-01-11T05:14:50.799Z,98481.00
2024-01-11T05:17:17.513Z,98480.20
2024-01-11T05:19:44.391Z,98483.40
2024-01-11T05:22:11.051Z,98485.60
2024-01-11T05:24:37.662Z,98486.80
2024-01-11T05:27:04.805Z,98491.80
2024-01-11T05:29:31.536Z,98504.40
2024-01-11T05:31:58.325Z,98505.20
2024-01-11T05:34:25.291Z,98502.40
2024-01-11T05:36:52.004Z,98509.20
2024-01-11T05:39:18.659Z,98500.00
2024-01-11T05:41:46.537Z,98498.20
2024-01-11T05:44:13.254Z,98502.40
2024-01-11T05:46:39.960Z,98502.20
2024-01-11T05:49:06.999Z,98503.60
2024-01-11T05:51:33.638Z,98505.60
2024-01-11T05:54:00.205Z,98505.60
2024-01-11T05:56:26.812Z,98512.40
2024-01-11T05:58:53.564Z,98520.00
2024-01-11T06:01:20.219Z,98529.20
2024-01-11T06:03:47.248Z,98532.00
2024-01-11T06:06:14.071Z,98527.60
2024-01-11T06:08:40.781Z,98518.60
2024-01-11T06:11:08.957Z,98521.60
2024-01-11T06:13:35.894Z,98523.60
2024-01-11T06:16:02.577Z,98532.20
2024-01-11T06:18:29.410Z,98546.80
2024-01-11T06:20:56.227Z,98555.00
2024-01-11T06:23:25.742Z,98563.20
2024-01-11T06:25:52.388Z,98559.80
2024-01-11T06:28:19.001Z,98563.40
2024-01-11T06:30:45.719Z,98566.60
2024-01-11T06:33:13.478Z,98555.20
2024-01-11T06:35:41.109Z,98563.00
2024-01-11T06:38:09.059Z,98566.80
2024-01-11T06:40:35.806Z,98575.40
2024-01-11T06:43:02.464Z,98578.60
2024-01-11T06:45:29.083Z,98577.00
2024-01-11T06:47:55.855Z,98573.00
2024-01-11T06:50:22.680Z,98575.60
2024-01-11T06:52:49.730Z,98572.00
2024-01-11T06:55:16.376Z,98576.60
2024-01-11T06:57:42.958Z,98568.00
2024-01-11T07:00:11.275Z,98563.40
2024-01-11T07:02:37.952Z,98562.80
2024-01-11T07:05:05.284Z,98565.00
2024-01-11T07:07:31.940Z,98560.20
2024-01-11T07:09:58.670Z,98560.20
2024-01-11T07:12:26.617Z,98557.40
2024-01-11T07:14:53.244Z,98552.00
2024-01-11T07:17:19.934Z,98549.20
2024-01-11T07:19:46.748Z,98549.40
2024-01-11T07:22:13.587Z,98548.60
2024-01-11T07:24:40.238Z,98552.80
2024-01-11T07:27:08.105Z,98562.80
2024-01-11T07:29:35.719Z,98558.60
2024-01-11T07:32:02.825Z,98557.40
2024-01-11T07:34:29.726Z,98555.40
2024-01-11T07:36:57.698Z,98556.20
2024-01-11T07:39:25.601Z,98561.80
2024-01-11T07:41:52.526Z,98566.80
2024-01-11T07:44:19.728Z,98576.40
2024-01-11T07:46:52.596Z,98576.40
2024-01-11T07:49:21.746Z,98582.00
2024-01-11T07:51:48.802Z,98586.40
2024-01-11T07:54:15.495Z,98579.60
2024-01-11T07:56:42.370Z,98566.60
2024-01-11T07:59:09.299Z,98569.00
2024-01-11T08:01:37.094Z,98571.20
2024-01-11T08:04:04.282Z,98570.20
2024-01-11T08:06:31.647Z,98571.20
2024-01-11T08:08:58.529Z,98585.80
2024-01-11T08:11:25.816Z,98574.40
2024-01-11T08:13:55.893Z,98587.60
2024-01-11T08:16:22.691Z,98592.40
2024-01-11T08:18:50.400Z,98596.80
2024-01-11T08:21:17.182Z,98601.40
2024-01-11T08:23:46.640Z,98606.80
2024-01-11T08:26:15.444Z,98606.20
2024-01-11T08:28:43.477Z,98602.20
2024-01-11T08:31:10.503Z,98599.00
2024-01-11T08:33:38.688Z,98591.60
2024-01-11T08:36:08.290Z,98586.20
2024-01-11T08:38:39.401Z,98591.80
2024-01-11T08:41:06.162Z,98597.20
2024-01-11T08:43:32.948Z,98608.60
2024-01-11T08:46:00.523Z,98607.60
2024-01-11T08:48:28.347Z,98613.60
2024-01-11T08:50:55.407Z,98613.80
2024-01-11T08:53:22.852Z,98613.80
2024-01-11T08:55:49.746Z,98613.80
2024-01-11T08:58:16.530Z,98613.20
2024-01-11T09:00:43.207Z,98611.60
2024-01-11T09:03:11.213Z,98611.40
2024-01-11T09:05:38.101Z,98623.40
2024-01-11T09:08:08.263Z,98623.60
2024-01-11T09:10:35.292Z,98620.80
2024-01-11T09:13:02.167Z,98613.80
2024-01-11T09:15:52.112Z,98609.80
2024-01-11T09:18:19.736Z,98606.20
2024-01-11T09:20:46.839Z,98605.80
2024-01-11T09:23:13.730Z,98601.60
2024-01-11T09:25:41.154Z,98600.60
2024-01-11T09:28:07.790Z,98596.00
2024-01-11T09:30:34.509Z,98585.20
2024-01-11T09:33:02.028Z,98572.40
2024-01-11T09:35:29.065Z,98571.60
2024-01-11T09:37:55.769Z,98573.60
2024-01-11T09:40:23.403Z,98576.40
2024-01-11T09:42:50.475Z,98570.20
2024-01-11T09:45:18.381Z,98573.00
2024-01-11T09:47:51.761Z,98566.00
2024-01-11T09:50:19.566Z,98566.20
2024-01-11T09:52:49.597Z,98559.00
2024-01-11T09:55:17.451Z,98534.60
2024-01-11T09:57:49.585Z,98537.20
2024-01-11T10:00:25.978Z,98538.00
2024-01-11T10:02:53.645Z,98530.00
2024-01-11T10:05:20.668Z,98530.40
2024-01-11T10:07:47.500Z,98532.00
2024-01-11T10:10:16.720Z,98525.40
2024-01-11T10:12:43.856Z,98517.00
2024-01-11T10:15:11.541Z,98507.20
2024-01-11T10:17:45.970Z,98503.60
2024-01-11T10:20:18.304Z,98513.00
2024-01-11T10:22:47.692Z,98508.60
2024-01-11T10:25:17.134Z,98502.80
2024-01-11T10:27:46.457Z,98497.80
2024-01-11T10:30:16.964Z,98488.60
2024-01-11T10:32:48.156Z,98491.80
2024-01-11T10:35:15.265Z,98506.00
2024-01-11T10:37:42.969Z,98512.20
2024-01-11T10:40:22.270Z,98512.00
2024-01-11T10:42:53.405Z,98505.40
2024-01-11T10:45:21.484Z,98493.60
2024-01-11T10:48:04.178Z,98496.40
2024-01-11T10:50:36.926Z,98487.60
2024-01-11T10:53:09.472Z,98475.00
2024-01-11T10:55:36.338Z,98474.60
2024-01-11T10:58:03.721Z,98478.80
2024-01-11T11:00:31.178Z,98476.20
2024-01-11T11:03:01.628Z,98477.60
2024-01-11T11:05:31.235Z,98490.60
2024-01-11T11:08:02.665Z,98508.60
2024-01-11T11:10:31.057Z,98502.80
2024-01-11T11:13:01.110Z,98504.60
2024-01-11T11:15:31.787Z,98479.20
2024-01-11T11:17:59.010Z,98465.40
2024-01-11T11:20:26.257Z,98471.60
2024-01-11T11:23:07.912Z,98470.40
2024-01-11T11:25:35.608Z,98479.00
2024-01-11T11:28:05.715Z,98480.80
2024-01-11T11:30:34.890Z,98489.40
2024-01-11T11:33:22.183Z,98482.60
2024-01-11T11:35:50.353Z,98496.20
2024-01-11T11:38:25.081Z,98487.20
2024-01-11T11:40:53.901Z,98469.00
2024-01-11T11:43:22.313Z,98470.60
2024-01-11T11:45:51.309Z,98480.80
2024-01-11T11:48:30.576Z,98486.20
2024-01-11T11:51:06.746Z,98476.80
2024-01-11T11:53:38.212Z,98467.40
2024-01-11T11:56:05.717Z,98444.80
2024-01-11T11:58:34.953Z,98441.60
2024-01-11T12:01:03.322Z,98429.80
2024-01-11T12:03:38.426Z,98424.60
2024-01-11T12:06:07.112Z,98470.40
2024-01-11T12:08:34.155Z,98478.20
2024-01-11T12:11:01.106Z,98460.00
2024-01-11T12:13:28.536Z,98468.00
2024-01-11T12:15:55.105Z,98461.20
2024-01-11T12:18:21.913Z,98471.20
2024-01-11T12:20:48.794Z,98469.80
2024-01-11T12:23:16.082Z,98466.20
2024-01-11T12:25:43.385Z,98447.40
2024-01-11T12:28:10.546Z,98443.60
2024-01-11T12:30:37.426Z,98441.00
2024-01-11T12:33:05.539Z,98444.40
2024-01-11T12:35:33.345Z,98436.80
2024-01-11T12:38:07.661Z,98436.80
2024-01-11T12:40:41.669Z,98442.80
2024-01-11T12:43:09.109Z,98455.80
2024-01-11T12:45:36.473Z,98441.80
2024-01-11T12:48:05.157Z,98441.60
2024-01-11T12:50:35.333Z,98430.00
2024-01-11T12:53:21.523Z,98428.40
2024-01-11T12:55:55.342Z,98432.40
2024-01-11T12:58:27.248Z,98419.60
2024-01-11T13:00:55.103Z,98420.20
2024-01-11T13:03:23.185Z,98425.60
2024-01-11T13:05:50.548Z,98426.00
2024-01-11T13:08:20.430Z,98426.20
2024-01-11T13:10:49.580Z,98425.40
2024-01-11T13:13:17.064Z,98417.60
2024-01-11T13:15:43.804Z,98406.80
2024-01-11T13:18:11.611Z,98407.40
2024-01-11T13:20:39.352Z,98403.00
2024-01-11T13:23:17.306Z,98403.60
2024-01-11T13:25:45.594Z,98387.00
2024-01-11T13:28:14.232Z,98365.60
2024-01-11T13:30:42.237Z,98384.00
2024-01-11T13:33:10.652Z,98392.60
2024-01-11T13:35:42.327Z,98389.40
2024-01-11T13:38:09.409Z,98386.40
2024-01-11T13:40:36.715Z,98393.40
2024-01-11T13:43:04.287Z,98400.60
2024-01-11T13:45:31.332Z,98407.20
2024-01-11T13:47:58.867Z,98408.60
2024-01-11T13:50:26.581Z,98416.60
2024-01-11T13:52:53.998Z,98426.60
2024-01-11T13:55:22.890Z,98432.60
2024-01-11T13:57:54.467Z,98439.20
2024-01-11T14:00:21.883Z,98442.20
2024-01-11T14:02:49.224Z,98438.20
2024-01-11T14:05:19.312Z,98436.40
2024-01-11T14:07:47.409Z,98431.80
2024-01-11T14:10:16.225Z,98432.00
2024-01-11T14:12:43.062Z,98434.60
2024-01-11T14:15:14.175Z,98430.80
2024-01-11T14:17:42.469Z,98435.80
2024-01-11T14:20:15.661Z,98437.80
2024-01-11T14:22:48.264Z,98433.60
2024-01-11T14:25:15.735Z,98429.80
2024-01-11T14:27:42.703Z,98430.40
2024-01-11T14:30:11.085Z,98436.20
2024-01-11T14:32:38.704Z,98441.80
2024-01-11T14:35:07.380Z,98431.20
2024-01-11T14:37:36.158Z,98431.80
2024-01-11T14:40:03.007Z,98434.40
2024-01-11T14:42:29.963Z,98446.40
2024-01-11T14:44:57.256Z,98447.20
2024-01-11T14:47:24.412Z,98439.40
2024-01-11T14:49:51.489Z,98434.20
2024-01-11T14:52:20.007Z,98432.40
2024-01-11T14:54:48.996Z,98432.00
2024-01-11T14:57:16.672Z,98437.00
2024-01-11T14:59:44.677Z,98440.80
2024-01-11T15:02:12.018Z,98442.80
2024-01-11T15:04:39.807Z,98445.00
2024-01-11T15:07:06.802Z,98433.00
2024-01-11T15:09:38.150Z,98439.80
2024-01-11T15:12:06.209Z,98437.40
2024-01-11T15:14:32.869Z,98417.40
2024-01-11T15:16:59.646Z,98415.40
2024-01-11T15:19:26.806Z,98420.80
2024-01-11T15:21:54.053Z,98427.60
2024-01-11T15:24:21.303Z,98423.40
2024-01-11T15:26:49.995Z,98408.80
2024-01-11T15:29:18.412Z,98416.00
2024-01-11T15:31:47.276Z,98412.80
2024-01-11T15:34:16.059Z,98409.80
2024-01-11T15:36:44.462Z,98417.40
2024-01-11T15:39:20.877Z,98417.80
2024-01-11T15:41:58.307Z,98421.60
2024-01-11T15:44:27.975Z,98428.80
2024-01-11T15:46:56.088Z,98435.00
2024-01-11T15:49:23.879Z,98443.20
2024-01-11T15:51:50.670Z,98439.00
2024-01-11T15:54:17.587Z,98442.20
2024-01-11T15:56:44.312Z,98440.60
2024-01-11T15:59:11.092Z,98445.40
2024-01-11T16:01:50.357Z,98454.80
2024-01-11T16:04:23.840Z,98462.00
2024-01-11T16:06:50.701Z,98452.40
2024-01-11T16:09:17.605Z,98459.60
2024-01-11T16:11:44.342Z,98453.20
2024-01-11T16:14:11.143Z,98449.80
2024-01-11T16:16:38.354Z,98454.80
2024-01-11T16:19:05.359Z,98458.60
2024-01-11T16:21:33.168Z,98472.60
2024-01-11T16:24:02.905Z,98479.20
2024-01-11T16:26:30.669Z,98487.00
2024-01-11T16:28:58.170Z,98487.40
2024-01-11T16:31:25.453Z,98492.20
2024-01-11T16:33:53.357Z,98494.20
2024-01-11T16:36:20.152Z,98502.80
2024-01-11T16:38:46.920Z,98510.80
2024-01-11T16:41:13.788Z,98510.80
2024-01-11T16:43:40.939Z,98520.60
2024-01-11T16:46:08.765Z,98525.00
2024-01-11T16:48:35.866Z,98525.60
2024-01-11T16:51:03.564Z,98527.40
2024-01-11T16:53:31.448Z,98525.20
2024-01-11T16:55:58.390Z,98521.40
2024-01-11T16:58:25.190Z,98515.20
2024-01-11T17:00:51.909Z,98517.60
2024-01-11T17:03:18.665Z,98511.20
2024-01-11T17:05:45.954Z,98513.40
2024-01-11T17:08:12.576Z,98515.80
2024-01-11T17:10:40.459Z,98522.40
2024-01-11T17:13:07.229Z,98530.40
2024-01-11T17:15:33.842Z,98529.60
2024-01-11T17:18:00.636Z,98520.00
2024-01-11T17:20:27.558Z,98516.00
2024-01-11T17:22:55.169Z,98517.20
2024-01-11T17:25:22.217Z,98522.60
2024-01-11T17:27:49.999Z,98515.40
2024-01-11T17:30:16.733Z,98512.60
2024-01-11T17:32:43.690Z,98502.20
2024-01-11T17:35:10.825Z,98506.40
2024-01-11T17:37:38.789Z,98512.80
2024-01-11T17:40:07.747Z,98513.80
2024-01-11T17:42:34.902Z,98502.60
2024-01-11T17:45:02.126Z,98505.60
2024-01-11T17:47:28.981Z,98513.80
2024-01-11T17:49:55.783Z,98526.00
2024-01-11T17:52:22.393Z,98536.80
2024-01-11T17:54:49.008Z,98531.00
2024-01-11T17:57:15.813Z,98531.00
2024-01-11T17:59:46.083Z,98530.40
2024-01-11T18:02:13.032Z,98524.20
2024-01-11T18:04:40.240Z,98521.80
2024-01-11T18:07:07.119Z,98520.80
2024-01-11T18:09:37.003Z,98516.60
2024-01-11T18:12:03.886Z,98518.40
2024-01-11T18:14:30.682Z,98519.40
2024-01-11T18:16:57.337Z,98509.80
2024-01-11T18:19:24.055Z,98498.20
2024-01-11T18:21:51.787Z,98499.20
2024-01-11T18:24:46.654Z,98498.80
2024-01-11T18:27:13.354Z,98508.60
2024-01-11T18:29:40.022Z,98510.00
2024-01-11T18:32:06.980Z,98508.80
2024-01-11T18:34:34.310Z,98502.40
2024-01-11T18:37:01.033Z,98514.20
2024-01-11T18:39:28.792Z,98520.00
2024-01-11T18:41:58.694Z,98528.60
2024-01-11T18:44:26.832Z,98526.20
2024-01-11T18:46:53.563Z,98539.40
2024-01-11T18:49:20.914Z,98538.60
2024-01-11T18:51:47.693Z,98542.80
2024-01-11T18:54:14.815Z,98540.40
2024-01-11T18:56:41.501Z,98537.40
2024-01-11T18:59:08.348Z,98533.00
2024-01-11T19:01:35.071Z,98531.80
2024-01-11T19:04:02.975Z,98528.60
2024-01-11T19:06:31.415Z,98536.40
2024-01-11T19:08:59.115Z,98539.60
2024-01-11T19:11:25.993Z,98548.20
2024-01-11T19:13:52.775Z,98545.60
2024-01-11T19:16:19.363Z,98543.20
2024-01-11T19:18:46.967Z,98541.60
2024-01-11T19:21:15.284Z,98533.60
2024-01-11T19:23:42.015Z,98526.80
2024-01-11T19:26:08.749Z,98519.80
2024-01-11T19:28:35.442Z,98518.20
2024-01-11T19:31:02.061Z,98512.20
2024-01-11T19:33:29.472Z,98508.00
2024-01-11T19:35:58.006Z,98513.40
2024-01-11T19:38:25.392Z,98505.20
2024-01-11T19:40:52.471Z,98502.60
2024-01-11T19:43:19.159Z,98504.00
2024-01-11T19:45:46.243Z,98494.80
2024-01-11T19:48:13.461Z,98507.20
2024-01-11T19:50:40.722Z,98508.60
2024-01-11T19:53:09.599Z,98515.60
2024-01-11T19:55:37.147Z,98513.80
2024-01-11T19:58:04.882Z,98516.00
2024-01-11T20:00:31.837Z,98518.40
2024-01-11T20:03:01.359Z,98506.40
2024-01-11T20:05:29.215Z,98503.00
2024-01-11T20:07:56.057Z,98509.40
2024-01-11T20:10:22.796Z,98520.40
2024-01-11T20:12:49.506Z,98516.20
2024-01-11T20:15:16.082Z,98521.00
2024-01-11T20:17:42.787Z,98522.60
2024-01-11T20:20:09.887Z,98524.60
2024-01-11T20:22:36.797Z,98529.60
2024-01-11T20:25:03.735Z,98525.40
2024-01-11T20:27:30.880Z,98523.20
2024-01-11T20:29:57.606Z,98525.80
2024-01-11T20:32:24.766Z,98525.00
2024-01-11T20:34:51.512Z,98521.20
2024-01-11T20:37:19.571Z,98515.40
2024-01-11T20:39:46.520Z,98510.40
2024-01-11T20:42:13.354Z,98514.20
2024-01-11T20:44:40.057Z,98518.60
2024-01-11T20:47:06.852Z,98517.60
2024-01-11T20:49:34.564Z,98530.20
2024-01-11T20:52:01.818Z,98520.60
2024-01-11T20:54:28.592Z,98525.40
2024-01-11T20:56:56.355Z,98525.00
2024-01-11T20:59:23.249Z,98516.40
2024-01-11T21:01:49.999Z,98513.20
2024-01-11T21:04:16.698Z,98524.20
2024-01-11T21:06:44.985Z,98515.20
2024-01-11T21:09:12.123Z,98516.40
2024-01-11T21:11:38.772Z,98507.20
2024-01-11T21:14:05.550Z,98507.60
2024-01-11T21:16:32.386Z,98513.00
2024-01-11T21:18:59.256Z,98515.00
2024-01-11T21:21:27.761Z,98520.00
2024-01-11T21:23:59.411Z,98516.60
2024-01-11T21:26:30.278Z,98520.60
2024-01-11T21:28:57.379Z,98521.40
2024-01-11T21:31:25.901Z,98523.00
2024-01-11T21:33:53.738Z,98525.00
2024-01-11T21:36:24.742Z,98523.20
2024-01-11T21:38:54.729Z,98517.20
2024-01-11T21:41:22.876Z,98508.00
2024-01-11T21:43:49.586Z,98506.80
2024-01-11T21:46:17.188Z,98506.40
2024-01-11T21:48:43.898Z,98502.20
2024-01-11T21:51:14.574Z,98504.60
2024-01-11T21:53:41.738Z,98508.40
2024-01-11T21:56:08.558Z,98502.60
2024-01-11T21:58:38.545Z,98502.40
2024-01-11T22:01:05.986Z,98500.20
2024-01-11T22:03:35.278Z,98497.40
2024-01-11T22:06:02.179Z,98500.40
2024-01-11T22:08:29.026Z,98506.00
2024-01-11T22:10:55.835Z,98515.00
2024-01-11T22:13:23.117Z,98521.80
2024-01-11T22:15:50.037Z,98519.40
2024-01-11T22:18:17.445Z,98522.40
2024-01-11T22:20:44.381Z,98521.20
2024-01-11T22:23:11.243Z,98534.60
2024-01-11T22:25:38.048Z,98537.00
2024-01-11T22:28:04.998Z,98527.20
2024-01-11T22:30:31.658Z,98538.80
2024-01-11T22:32:58.413Z,98545.60
2024-01-11T22:35:25.196Z,98544.60
2024-01-11T22:37:51.890Z,98539.20
2024-01-11T22:40:18.734Z,98546.40
2024-01-11T22:42:46.612Z,98543.80
2024-01-11T22:45:13.196Z,98549.80
2024-01-11T22:47:40.850Z,98557.60
2024-01-11T22:50:09.423Z,98554.00
2024-01-11T22:52:36.117Z,98553.40
2024-01-11T22:55:02.825Z,98553.80
2024-01-11T22:57:29.484Z,98549.20
2024-01-11T22:59:56.189Z,98542.60
2024-01-11T23:02:23.239Z,98544.80
2024-01-11T23:04:50.815Z,98553.40
2024-01-11T23:07:17.508Z,98546.20
2024-01-11T23:09:44.218Z,98554.60
2024-01-11T23:12:10.935Z,98545.00
2024-01-11T23:14:37.725Z,98545.80
2024-01-11T23:17:07.168Z,98546.20
2024-01-11T23:19:34.067Z,98552.40
2024-01-11T23:22:00.898Z,98557.40
2024-01-11T23:24:28.501Z,98557.40
2024-01-11T23:26:55.263Z,98562.40
2024-01-11T23:29:22.119Z,98559.20
2024-01-11T23:31:51.201Z,98560.00
2024-01-11T23:34:18.009Z,98563.20
2024-01-11T23:36:44.663Z,98562.60
2024-01-11T23:39:11.595Z,98567.80
2024-01-11T23:41:38.306Z,98567.00
2024-01-11T23:44:05.362Z,98566.40
2024-01-11T23:46:31.946Z,98561.40
2024-01-11T23:48:58.626Z,98563.60
2024-01-11T23:51:25.499Z,98563.00
2024-01-11T23:53:52.338Z,98563.40
2024-01-11T23:56:19.189Z,98549.00
2024-01-11T23:58:45.817Z,98551.20
